createdAt,value
2022-08-26T00:00:48.152Z,28.90
2022-08-26T00:03:16.233Z,28.89
2022-08-26T00:05:45.193Z,28.86
2022-08-26T00:08:15.066Z,28.85
2022-08-26T00:10:42.874Z,28.83
2022-08-26T00:13:10.974Z,28.81
2022-08-26T00:15:38.738Z,28.83
2022-08-26T00:18:05.877Z,28.84
2022-08-26T00:20:49.323Z,28.80
2022-08-26T00:23:15.920Z,28.69
2022-08-26T00:25:42.794Z,28.52
2022-08-26T00:28:12.293Z,28.43
2022-08-26T00:30:39.215Z,28.51
2022-08-26T00:33:05.893Z,28.48
2022-08-26T00:35:33.533Z,28.34
2022-08-26T00:38:01.198Z,28.43
2022-08-26T00:40:38.337Z,28.45
2022-08-26T00:43:09.426Z,28.41
2022-08-26T00:45:59.648Z,28.38
2022-08-26T00:48:32.156Z,28.33
2022-08-26T00:51:11.623Z,28.32
2022-08-26T00:53:45.601Z,28.32
2022-08-26T00:56:29.143Z,28.26
2022-08-26T00:59:00.358Z,28.15
2022-08-26T01:01:26.883Z,28.05
2022-08-26T01:03:54.779Z,28.09
2022-08-26T01:06:24.800Z,28.07
2022-08-26T01:08:52.653Z,28.06
2022-08-26T01:11:20.545Z,28.08
2022-08-26T01:13:52.125Z,28.04
2022-08-26T01:16:18.862Z,28.08
2022-08-26T01:18:48.320Z,28.10
2022-08-26T01:21:47.186Z,28.10
2022-08-26T01:24:14.754Z,28.08
2022-08-26T01:26:44.434Z,28.02
2022-08-26T01:29:17.519Z,28.06
2022-08-26T01:31:54.447Z,28.04
2022-08-26T01:34:26.118Z,27.94
2022-08-26T01:37:00.915Z,27.91
2022-08-26T01:39:27.440Z,27.89
2022-08-26T01:41:57.882Z,27.90
2022-08-26T01:44:34.690Z,27.89
2022-08-26T01:47:02.288Z,27.82
2022-08-26T01:49:34.965Z,27.71
2022-08-26T01:52:05.151Z,27.68
2022-08-26T01:54:33.223Z,27.68
2022-08-26T01:57:01.399Z,27.65
2022-08-26T01:59:30.075Z,27.63
2022-08-26T02:01:57.196Z,27.61
2022-08-26T02:04:33.613Z,27.58
2022-08-26T02:07:06.200Z,27.54
2022-08-26T02:09:41.209Z,27.40
2022-08-26T02:12:10.683Z,27.40
2022-08-26T02:14:44.610Z,27.35
2022-08-26T02:17:11.666Z,27.33
2022-08-26T02:19:45.099Z,27.35
2022-08-26T02:22:17.704Z,27.32
2022-08-26T02:24:56.928Z,27.31
2022-08-26T02:27:28.281Z,27.28
2022-08-26T02:30:06.184Z,27.22
2022-08-26T02:32:32.895Z,27.07
2022-08-26T02:34:59.400Z,27.06
2022-08-26T02:37:30.812Z,27.00
2022-08-26T02:39:57.599Z,27.03
2022-08-26T02:42:24.172Z,26.92
2022-08-26T02:44:51.515Z,26.94
2022-08-26T02:47:18.123Z,26.94
2022-08-26T02:49:47.450Z,26.94
2022-08-26T02:52:14.864Z,26.94
2022-08-26T02:54:41.435Z,26.89
2022-08-26T02:57:09.048Z,26.91
2022-08-26T02:59:35.561Z,26.93
2022-08-26T03:02:02.579Z,26.92
2022-08-26T03:04:29.711Z,26.86
2022-08-26T03:07:00.114Z,26.87
2022-08-26T03:09:27.045Z,26.85
2022-08-26T03:11:53.721Z,26.88
2022-08-26T03:14:20.316Z,26.88
2022-08-26T03:16:48.436Z,26.92
2022-08-26T03:19:15.183Z,26.94
2022-08-26T03:21:44.990Z,26.93
2022-08-26T03:24:14.203Z,26.94
2022-08-26T03:26:41.076Z,26.90
2022-08-26T03:29:19.554Z,26.83
2022-08-26T03:31:47.091Z,26.83
2022-08-26T03:34:14.135Z,26.81
2022-08-26T03:36:41.652Z,26.83
2022-08-26T03:39:08.466Z,26.82
2022-08-26T03:41:36.286Z,26.78
2022-08-26T03:44:07.939Z,26.83
2022-08-26T03:46:35.226Z,26.73
2022-08-26T03:49:03.623Z,26.72
2022-08-26T03:51:30.124Z,26.68
2022-08-26T03:53:57.959Z,26.69
2022-08-26T03:56:24.728Z,26.68
2022-08-26T03:58:53.420Z,26.63
2022-08-26T04:01:20.717Z,26.59
2022-08-26T04:03:48.180Z,26.57
2022-08-26T04:06:14.954Z,26.58
2022-08-26T04:08:43.443Z,26.54
2022-08-26T04:11:19.735Z,26.46
2022-08-26T04:13:47.335Z,26.44
2022-08-26T04:16:15.524Z,26.44
2022-08-26T04:18:46.877Z,26.40
2022-08-26T04:21:15.389Z,26.37
2022-08-26T04:23:47.120Z,26.32
2022-08-26T04:26:13.961Z,26.37
2022-08-26T04:28:40.438Z,26.28
2022-08-26T04:31:11.616Z,26.33
2022-08-26T04:33:41.584Z,26.26
2022-08-26T04:36:09.659Z,26.32
2022-08-26T04:38:36.668Z,26.24
2022-08-26T04:41:05.464Z,26.29
2022-08-26T04:43:32.179Z,26.30
2022-08-26T04:46:04.282Z,26.33
2022-08-26T04:48:32.610Z,26.36
2022-08-26T04:50:59.754Z,26.44
2022-08-26T04:53:27.872Z,26.40
2022-08-26T04:55:55.265Z,26.50
2022-08-26T04:58:24.485Z,26.50
2022-08-26T05:00:54.950Z,26.51
2022-08-26T05:03:23.336Z,26.58
2022-08-26T05:05:50.924Z,26.52
2022-08-26T05:08:19.550Z,26.54
2022-08-26T05:10:50.781Z,26.53
2022-08-26T05:13:20.520Z,26.59
2022-08-26T05:15:48.647Z,26.58
2022-08-26T05:18:20.030Z,26.60
2022-08-26T05:20:53.907Z,26.65
2022-08-26T05:23:22.691Z,26.71
2022-08-26T05:25:55.849Z,26.77
2022-08-26T05:28:26.500Z,26.77
2022-08-26T05:30:54.315Z,26.82
2022-08-26T05:33:20.859Z,26.89
2022-08-26T05:35:48.617Z,26.94
2022-08-26T05:38:18.820Z,26.95
2022-08-26T05:40:48.277Z,27.02
2022-08-26T05:43:16.536Z,26.95
2022-08-26T05:45:50.555Z,27.05
2022-08-26T05:48:24.167Z,27.08
2022-08-26T05:50:52.937Z,27.15
2022-08-26T05:53:22.057Z,27.15
2022-08-26T05:55:53.693Z,27.01
2022-08-26T05:58:22.816Z,27.07
2022-08-26T06:01:12.807Z,26.94
2022-08-26T06:03:44.131Z,27.11
2022-08-26T06:06:20.140Z,27.22
2022-08-26T06:08:47.758Z,26.88
2022-08-26T06:11:18.338Z,27.14
2022-08-26T06:13:46.015Z,27.21
2022-08-26T06:16:16.282Z,27.21
2022-08-26T06:18:45.892Z,27.32
2022-08-26T06:21:15.235Z,27.22
2022-08-26T06:23:42.791Z,27.21
2022-08-26T06:26:11.207Z,26.89
2022-08-26T06:28:37.895Z,27.21
2022-08-26T06:31:04.608Z,27.41
2022-08-26T06:33:31.147Z,27.59
2022-08-26T06:35:58.234Z,27.67
2022-08-26T06:38:25.466Z,27.54
2022-08-26T06:40:54.194Z,27.22
2022-08-26T06:43:24.809Z,27.33
2022-08-26T06:45:52.319Z,27.32
2022-08-26T06:48:20.480Z,27.20
2022-08-26T06:50:47.930Z,27.24
2022-08-26T06:53:16.669Z,27.06
2022-08-26T06:55:45.725Z,27.36
2022-08-26T06:58:13.481Z,27.37
2022-08-26T07:00:40.585Z,27.48
2022-08-26T07:03:13.752Z,27.39
2022-08-26T07:05:40.303Z,26.90
2022-08-26T07:08:06.892Z,27.05
2022-08-26T07:10:33.390Z,26.40
2022-08-26T07:13:00.444Z,26.28
2022-08-26T07:15:31.005Z,26.12
2022-08-26T07:17:58.091Z,26.40
2022-08-26T07:20:24.748Z,26.52
2022-08-26T07:22:51.525Z,26.68
2022-08-26T07:25:19.356Z,26.72
2022-08-26T07:27:46.835Z,26.32
2022-08-26T07:30:20.950Z,26.35
2022-08-26T07:32:47.467Z,26.25
2022-08-26T07:35:14.859Z,25.94
2022-08-26T07:37:42.730Z,26.07
2022-08-26T07:40:10.103Z,26.01
2022-08-26T07:42:36.662Z,25.51
2022-08-26T07:45:03.926Z,25.29
2022-08-26T07:47:30.457Z,25.28
2022-08-26T07:49:57.866Z,25.13
2022-08-26T07:52:27.889Z,24.79
2022-08-26T07:54:58.504Z,24.99
2022-08-26T07:57:26.544Z,24.99
2022-08-26T07:59:55.204Z,25.17
2022-08-26T08:02:23.144Z,25.66
2022-08-26T08:04:49.667Z,25.83
2022-08-26T08:07:16.189Z,26.03
2022-08-26T08:09:42.736Z,25.35
2022-08-26T08:12:09.287Z,25.59
2022-08-26T08:14:41.287Z,25.76
2022-08-26T08:17:08.569Z,26.22
2022-08-26T08:19:37.021Z,26.23
2022-08-26T08:22:17.058Z,26.11
2022-08-26T08:24:44.324Z,26.08
2022-08-26T08:27:10.944Z,26.24
2022-08-26T08:29:38.670Z,26.65
2022-08-26T08:32:05.633Z,26.88
2022-08-26T08:34:38.186Z,26.72
2022-08-26T08:37:08.642Z,26.57
2022-08-26T08:39:37.656Z,26.75
2022-08-26T08:42:32.865Z,26.80
2022-08-26T08:45:10.383Z,27.14
2022-08-26T08:47:41.825Z,27.39
2022-08-26T08:50:31.034Z,27.15
2022-08-26T08:53:21.718Z,27.15
2022-08-26T08:56:04.863Z,27.27
2022-08-26T08:59:03.784Z,27.22
2022-08-26T09:01:42.380Z,27.55
2022-08-26T09:04:24.114Z,27.71
2022-08-26T09:06:55.575Z,27.55
2022-08-26T09:09:41.347Z,27.18
2022-08-26T09:12:19.462Z,27.25
2022-08-26T09:14:49.059Z,27.21
2022-08-26T09:17:53.700Z,27.09
2022-08-26T09:20:32.481Z,26.81
2022-08-26T09:22:59.363Z,25.41
2022-08-26T09:25:26.203Z,24.96
2022-08-26T09:27:53.967Z,24.69
2022-08-26T09:30:31.427Z,24.71
2022-08-26T09:33:10.076Z,24.80
2022-08-26T09:35:39.811Z,24.67
2022-08-26T09:38:26.778Z,24.47
2022-08-26T09:41:03.718Z,24.92
2022-08-26T09:43:32.692Z,24.82
2022-08-26T09:46:21.982Z,24.85
2022-08-26T09:48:53.054Z,25.03
2022-08-26T09:51:19.735Z,25.03
2022-08-26T09:53:57.427Z,25.13
2022-08-26T09:56:28.309Z,24.96
2022-08-26T09:58:56.622Z,25.12
2022-08-26T10:01:23.297Z,24.77
2022-08-26T10:03:51.045Z,24.88
2022-08-26T10:06:17.581Z,25.18
2022-08-26T10:08:57.229Z,24.98
2022-08-26T10:11:47.203Z,25.37
2022-08-26T10:14:24.978Z,25.38
2022-08-26T10:17:03.287Z,25.67
2022-08-26T10:19:55.958Z,25.50
2022-08-26T10:22:38.825Z,25.27
2022-08-26T10:25:12.851Z,25.39
2022-08-26T10:27:53.840Z,25.56
2022-08-26T10:30:26.060Z,25.95
2022-08-26T10:33:00.917Z,26.27
2022-08-26T10:35:27.744Z,25.86
2022-08-26T10:38:16.725Z,25.61
2022-08-26T10:40:57.533Z,25.52
2022-08-26T10:43:40.901Z,25.57
2022-08-26T10:46:16.453Z,25.55
2022-08-26T10:48:57.565Z,25.59
2022-08-26T10:51:34.559Z,25.59
2022-08-26T10:54:09.519Z,25.90
2022-08-26T10:56:53.493Z,26.34
2022-08-26T10:59:43.075Z,26.22
2022-08-26T11:02:35.372Z,25.70
2022-08-26T11:05:05.564Z,26.30
2022-08-26T11:07:42.633Z,26.82
2022-08-26T11:10:38.286Z,26.94
2022-08-26T11:13:06.606Z,27.29
2022-08-26T11:15:33.045Z,27.27
2022-08-26T11:18:03.086Z,26.72
2022-08-26T11:20:37.587Z,26.86
2022-08-26T11:23:20.346Z,27.01
2022-08-26T11:25:57.212Z,26.76
2022-08-26T11:28:35.923Z,27.08
2022-08-26T11:31:04.788Z,27.61
2022-08-26T11:34:01.575Z,27.63
2022-08-26T11:36:34.454Z,27.67
2022-08-26T11:39:21.319Z,27.66
2022-08-26T11:41:52.954Z,27.88
2022-08-26T11:44:40.782Z,27.66
2022-08-26T11:47:07.858Z,28.04
2022-08-26T11:49:38.872Z,28.06
2022-08-26T11:52:18.418Z,27.96
2022-08-26T11:55:01.795Z,27.91
2022-08-26T11:57:30.220Z,28.35
2022-08-26T11:59:57.488Z,28.60
2022-08-26T12:02:25.015Z,28.70
2022-08-26T12:04:55.596Z,28.59
2022-08-26T12:07:28.349Z,28.36
2022-08-26T12:10:04.406Z,28.78
2022-08-26T12:12:36.264Z,28.99
2022-08-26T12:15:14.049Z,29.16
2022-08-26T12:17:42.219Z,29.25
2022-08-26T12:20:33.014Z,29.33
2022-08-26T12:22:59.562Z,29.65
2022-08-26T12:25:26.735Z,29.76
2022-08-26T12:27:54.173Z,30.04
2022-08-26T12:30:23.738Z,30.03
2022-08-26T12:33:10.829Z,30.21
2022-08-26T12:35:52.861Z,30.07
2022-08-26T12:38:22.250Z,30.35
2022-08-26T12:40:48.951Z,30.44
2022-08-26T12:43:37.100Z,30.30
2022-08-26T12:46:04.334Z,30.26
2022-08-26T12:48:37.842Z,30.23
2022-08-26T12:51:09.228Z,30.35
2022-08-26T12:53:43.228Z,30.39
2022-08-26T12:56:38.658Z,30.45
2022-08-26T12:59:22.064Z,30.48
2022-08-26T13:01:48.672Z,30.59
2022-08-26T13:04:41.432Z,30.87
2022-08-26T13:07:23.673Z,30.95
2022-08-26T13:09:52.886Z,31.11
2022-08-26T13:12:39.622Z,31.14
2022-08-26T13:15:08.088Z,30.77
2022-08-26T13:17:34.622Z,30.76
2022-08-26T13:20:03.800Z,30.89
2022-08-26T13:22:31.716Z,30.77
2022-08-26T13:24:58.302Z,31.06
2022-08-26T13:27:26.772Z,31.10
2022-08-26T13:29:54.866Z,30.57
2022-08-26T13:32:22.267Z,30.58
2022-08-26T13:34:54.888Z,30.31
2022-08-26T13:37:21.589Z,30.28
2022-08-26T13:39:51.218Z,30.52
2022-08-26T13:42:17.780Z,30.29
2022-08-26T13:44:44.478Z,30.67
2022-08-26T13:47:10.981Z,30.53
2022-08-26T13:49:37.486Z,30.08
2022-08-26T13:52:04.057Z,30.09
2022-08-26T13:54:30.708Z,30.20
2022-08-26T13:56:57.226Z,30.57
2022-08-26T13:59:23.816Z,30.76
2022-08-26T14:01:50.330Z,30.73
2022-08-26T14:04:16.822Z,30.68
2022-08-26T14:06:49.857Z,30.88
2022-08-26T14:09:16.366Z,30.86
2022-08-26T14:11:50.800Z,30.80
2022-08-26T14:14:21.434Z,30.95
2022-08-26T14:16:58.983Z,30.84
2022-08-26T14:19:30.550Z,30.79
2022-08-26T14:21:57.336Z,31.14
2022-08-26T14:24:23.839Z,31.38
2022-08-26T14:26:50.358Z,31.54
2022-08-26T14:29:17.116Z,31.84
2022-08-26T14:31:43.884Z,31.73
2022-08-26T14:34:13.766Z,32.16
2022-08-26T14:36:40.286Z,32.14
2022-08-26T14:39:10.437Z,32.14
2022-08-26T14:41:54.399Z,32.30
2022-08-26T14:44:25.872Z,32.26
2022-08-26T14:46:53.916Z,31.82
2022-08-26T14:49:22.701Z,31.57
2022-08-26T14:51:49.986Z,31.38
2022-08-26T14:54:18.255Z,30.93
2022-08-26T14:56:57.320Z,30.88
2022-08-26T14:59:30.817Z,30.72
2022-08-26T15:01:57.641Z,30.73
2022-08-26T15:04:25.052Z,30.94
2022-08-26T15:06:54.513Z,30.70
2022-08-26T15:09:22.295Z,30.37
2022-08-26T15:11:49.328Z,30.41
2022-08-26T15:14:19.408Z,30.21
2022-08-26T15:16:52.279Z,30.23
2022-08-26T15:19:19.833Z,30.04
2022-08-26T15:21:47.427Z,30.28
2022-08-26T15:24:17.032Z,30.11
2022-08-26T15:26:44.875Z,30.40
2022-08-26T15:29:11.584Z,30.41
2022-08-26T15:31:38.191Z,30.72
2022-08-26T15:34:08.555Z,31.15
2022-08-26T15:36:38.331Z,31.64
2022-08-26T15:39:07.430Z,32.13
2022-08-26T15:41:35.119Z,32.10
2022-08-26T15:44:03.571Z,32.41
2022-08-26T15:46:31.209Z,32.81
2022-08-26T15:48:57.870Z,33.39
2022-08-26T15:51:31.290Z,34.02
2022-08-26T15:53:58.886Z,34.32
2022-08-26T15:56:31.646Z,34.62
2022-08-26T15:58:59.136Z,34.48
2022-08-26T16:01:28.570Z,33.46
2022-08-26T16:03:55.946Z,31.58
2022-08-26T16:06:25.905Z,30.87
2022-08-26T16:08:52.456Z,30.89
2022-08-26T16:11:19.104Z,30.59
2022-08-26T16:13:46.226Z,30.73
2022-08-26T16:16:12.791Z,30.53
2022-08-26T16:18:39.306Z,29.63
2022-08-26T16:21:13.192Z,29.51
2022-08-26T16:23:40.738Z,29.34
2022-08-26T16:26:18.888Z,29.14
2022-08-26T16:28:46.187Z,28.80
2022-08-26T16:31:13.500Z,28.42
2022-08-26T16:33:40.293Z,28.20
2022-08-26T16:36:08.876Z,27.85
2022-08-26T16:38:37.306Z,28.00
2022-08-26T16:41:04.577Z,28.28
2022-08-26T16:43:31.158Z,28.01
2022-08-26T16:45:57.853Z,27.91
2022-08-26T16:48:24.492Z,28.09
2022-08-26T16:50:51.336Z,28.32
2022-08-26T16:53:17.923Z,28.97
2022-08-26T16:55:46.009Z,29.35
2022-08-26T16:58:12.568Z,29.91
2022-08-26T17:00:39.066Z,30.53
2022-08-26T17:03:05.660Z,30.89
2022-08-26T17:05:32.351Z,31.14
2022-08-26T17:08:00.250Z,31.38
2022-08-26T17:10:28.450Z,31.47
2022-08-26T17:12:55.301Z,31.46
2022-08-26T17:15:22.294Z,31.45
2022-08-26T17:17:49.322Z,31.75
2022-08-26T17:20:17.386Z,32.03
2022-08-26T17:22:46.945Z,31.98
2022-08-26T17:25:22.779Z,32.17
2022-08-26T17:27:50.550Z,31.75
2022-08-26T17:30:17.938Z,31.39
2022-08-26T17:32:45.235Z,31.34
2022-08-26T17:35:13.104Z,30.98
2022-08-26T17:37:40.821Z,30.94
2022-08-26T17:40:12.670Z,30.71
2022-08-26T17:42:40.105Z,30.91
2022-08-26T17:45:08.431Z,30.23
2022-08-26T17:47:35.933Z,30.24
2022-08-26T17:50:05.843Z,30.20
2022-08-26T17:52:32.623Z,29.91
2022-08-26T17:54:59.113Z,29.84
2022-08-26T17:57:25.669Z,29.67
2022-08-26T17:59:53.487Z,29.44
2022-08-26T18:02:20.299Z,28.91
2022-08-26T18:04:47.074Z,28.65
2022-08-26T18:07:14.418Z,28.11
2022-08-26T18:09:40.944Z,27.92
2022-08-26T18:12:07.933Z,27.71
2022-08-26T18:14:34.678Z,27.74
2022-08-26T18:17:01.760Z,27.90
2022-08-26T18:19:28.308Z,27.68
2022-08-26T18:21:54.938Z,27.90
2022-08-26T18:24:21.622Z,28.06
2022-08-26T18:26:48.120Z,28.20
2022-08-26T18:29:16.104Z,28.27
2022-08-26T18:31:43.045Z,28.12
2022-08-26T18:34:10.478Z,28.09
2022-08-26T18:36:36.981Z,28.11
2022-08-26T18:39:05.981Z,27.92
2022-08-26T18:41:37.994Z,28.06
2022-08-26T18:44:04.492Z,28.12
2022-08-26T18:46:31.151Z,28.20
2022-08-26T18:48:57.848Z,28.11
2022-08-26T18:51:30.041Z,28.07
2022-08-26T18:53:58.149Z,28.06
2022-08-26T18:56:24.861Z,27.99
2022-08-26T18:58:51.730Z,27.91
2022-08-26T19:01:19.654Z,28.02
2022-08-26T19:03:48.285Z,28.06
2022-08-26T19:06:21.332Z,28.06
2022-08-26T19:08:49.736Z,27.81
2022-08-26T19:11:18.285Z,27.87
2022-08-26T19:14:00.766Z,27.78
2022-08-26T19:16:28.309Z,28.03
2022-08-26T19:18:56.833Z,28.05
2022-08-26T19:21:23.391Z,28.07
2022-08-26T19:23:50.563Z,28.23
2022-08-26T19:26:17.906Z,28.21
2022-08-26T19:28:44.601Z,28.08
2022-08-26T19:31:12.156Z,27.93
2022-08-26T19:33:41.179Z,28.07
2022-08-26T19:36:12.641Z,28.14
2022-08-26T19:38:41.150Z,27.96
2022-08-26T19:41:10.855Z,27.65
2022-08-26T19:43:37.448Z,27.77
2022-08-26T19:46:16.931Z,27.72
2022-08-26T19:48:44.565Z,27.80
2022-08-26T19:51:23.133Z,27.69
2022-08-26T19:53:50.848Z,27.40
2022-08-26T19:56:18.551Z,27.25
2022-08-26T19:58:46.184Z,27.39
2022-08-26T20:01:14.331Z,26.83
2022-08-26T20:03:42.321Z,26.75
2022-08-26T20:06:11.926Z,26.33
2022-08-26T20:08:40.099Z,26.44
2022-08-26T20:11:11.551Z,26.31
2022-08-26T20:13:38.422Z,26.29
2022-08-26T20:16:05.503Z,26.60
2022-08-26T20:18:32.009Z,26.78
2022-08-26T20:20:58.498Z,26.93
2022-08-26T20:23:25.026Z,27.06
2022-08-26T20:25:51.541Z,27.12
2022-08-26T20:28:18.038Z,27.21
2022-08-26T20:30:44.526Z,27.30
2022-08-26T20:33:11.084Z,27.21
2022-08-26T20:35:37.590Z,27.30
2022-08-26T20:38:04.090Z,27.32
2022-08-26T20:40:30.697Z,27.05
2022-08-26T20:42:57.760Z,27.20
2022-08-26T20:45:24.251Z,27.17
2022-08-26T20:47:50.751Z,27.26
2022-08-26T20:50:17.316Z,27.31
2022-08-26T20:52:43.831Z,27.27
2022-08-26T20:55:11.823Z,27.34
2022-08-26T20:57:38.346Z,27.24
2022-08-26T21:00:06.192Z,26.80
2022-08-26T21:02:33.770Z,26.17
2022-08-26T21:05:00.413Z,26.44
2022-08-26T21:07:26.969Z,26.27
2022-08-26T21:09:54.179Z,26.50
2022-08-26T21:12:20.695Z,26.38
2022-08-26T21:14:49.678Z,26.47
2022-08-26T21:17:16.668Z,26.54
2022-08-26T21:19:43.177Z,26.28
2022-08-26T21:22:10.099Z,26.45
2022-08-26T21:24:36.706Z,26.59
2022-08-26T21:27:03.823Z,26.25
2022-08-26T21:29:30.337Z,26.61
2022-08-26T21:31:57.086Z,26.73
2022-08-26T21:34:23.581Z,26.53
2022-08-26T21:36:50.264Z,26.73
2022-08-26T21:39:16.959Z,26.84
2022-08-26T21:41:44.834Z,26.87
2022-08-26T21:44:13.694Z,26.89
2022-08-26T21:46:41.493Z,26.74
2022-08-26T21:49:11.621Z,26.08
2022-08-26T21:51:41.589Z,26.26
2022-08-26T21:54:11.021Z,26.31
2022-08-26T21:56:41.642Z,26.51
2022-08-26T21:59:09.011Z,26.49
2022-08-26T22:01:36.250Z,26.56
2022-08-26T22:04:05.184Z,26.60
2022-08-26T22:06:33.612Z,26.64
2022-08-26T22:09:01.004Z,26.70
2022-08-26T22:11:28.348Z,26.70
2022-08-26T22:13:55.042Z,26.70
2022-08-26T22:16:21.658Z,26.58
2022-08-26T22:18:48.297Z,26.54
2022-08-26T22:21:19.921Z,26.59
2022-08-26T22:23:47.601Z,26.48
2022-08-26T22:26:20.584Z,26.50
2022-08-26T22:28:52.058Z,26.51
2022-08-26T22:31:28.139Z,26.48
2022-08-26T22:34:06.247Z,26.43
2022-08-26T22:36:32.794Z,26.43
2022-08-26T22:38:59.277Z,26.43
2022-08-26T22:41:25.796Z,26.44
2022-08-26T22:43:52.356Z,26.26
2022-08-26T22:46:21.624Z,26.37
2022-08-26T22:48:53.864Z,26.39
2022-08-26T22:51:22.052Z,26.35
2022-08-26T22:53:49.384Z,26.29
2022-08-26T22:56:16.239Z,26.24
2022-08-26T22:58:42.730Z,26.28
2022-08-26T23:01:09.626Z,26.25
2022-08-26T23:03:40.427Z,26.22
2022-08-26T23:06:09.156Z,26.18
2022-08-26T23:08:37.236Z,26.02
2022-08-26T23:11:08.804Z,26.03
2022-08-26T23:13:35.857Z,25.94
2022-08-26T23:16:07.480Z,25.69
2022-08-26T23:18:34.310Z,25.54
2022-08-26T23:21:00.834Z,25.82
2022-08-26T23:23:27.847Z,25.70
2022-08-26T23:25:55.687Z,25.85
2022-08-26T23:28:24.128Z,25.92
2022-08-26T23:30:50.622Z,25.77
2022-08-26T23:33:17.189Z,25.89
2022-08-26T23:35:43.744Z,25.56
2022-08-26T23:38:10.389Z,25.14
2022-08-26T23:40:41.335Z,25.23
2022-08-26T23:43:10.002Z,24.90
2022-08-26T23:45:36.690Z,25.13
2022-08-26T23:48:05.011Z,25.39
2022-08-26T23:50:32.106Z,25.33
2022-08-26T23:52:58.585Z,25.23
2022-08-26T23:55:25.410Z,25.27
2022-08-26T23:57:51.912Z,25.52
